sensor_id;sensor_type;location;lat;lon;timestamp;P1;durP1;ratioP1;P2;durP2;ratioP2
37937;SDS011;23763;48.130;11.602;2023-02-13T00:00:35;17.90;;;10.10;;
37937;SDS011;23763;48.130;11.602;2023-02-13T00:03:01;19.57;;;10.07;;
37937;SDS011;23763;48.130;11.602;2023-02-13T00:05:27;29.67;;;10.50;;
37937;SDS011;23763;48.130;11.602;2023-02-13T00:07:53;19.20;;;10.23;;
37937;SDS011;23763;48.130;11.602;2023-02-13T00:10:18;26.87;;;10.93;;
37937;SDS011;23763;48.130;11.602;2023-02-13T00:12:44;22.03;;;11.70;;
37937;SDS011;23763;48.130;11.602;2023-02-13T00:15:10;21.40;;;11.37;;
37937;SDS011;23763;48.130;11.602;2023-02-13T00:17:35;21.73;;;11.77;;
37937;SDS011;23763;48.130;11.602;2023-02-13T00:20:01;26.87;;;12.33;;
37937;SDS011;23763;48.130;11.602;2023-02-13T00:22:27;29.27;;;12.83;;
37937;SDS011;23763;48.130;11.602;2023-02-13T00:24:53;28.77;;;12.33;;
37937;SDS011;23763;48.130;11.602;2023-02-13T00:27:18;24.93;;;11.77;;
37937;SDS011;23763;48.130;11.602;2023-02-13T00:29:44;28.67;;;12.83;;
37937;SDS011;23763;48.130;11.602;2023-02-13T00:32:10;21.40;;;12.37;;
37937;SDS011;23763;48.130;11.602;2023-02-13T00:34:35;20.20;;;12.80;;
37937;SDS011;23763;48.130;11.602;2023-02-13T00:37:01;26.37;;;13.10;;
37937;SDS011;23763;48.130;11.602;2023-02-13T00:39:27;22.40;;;12.43;;
37937;SDS011;23763;48.130;11.602;2023-02-13T00:41:52;23.37;;;13.17;;
37937;SDS011;23763;48.130;11.602;2023-02-13T00:44:18;31.53;;;13.03;;
37937;SDS011;23763;48.130;11.602;2023-02-13T00:46:45;23.10;;;12.10;;
37937;SDS011;23763;48.130;11.602;2023-02-13T00:49:10;27.87;;;12.97;;
37937;SDS011;23763;48.130;11.602;2023-02-13T00:51:36;30.30;;;11.73;;
37937;SDS011;23763;48.130;11.602;2023-02-13T00:54:01;21.50;;;13.00;;
37937;SDS011;23763;48.130;11.602;2023-02-13T00:56:27;27.37;;;11.97;;
37937;SDS011;23763;48.130;11.602;2023-02-13T00:58:53;20.40;;;12.87;;
37937;SDS011;23763;48.130;11.602;2023-02-13T01:01:18;25.13;;;12.00;;
37937;SDS011;23763;48.130;11.602;2023-02-13T01:03:44;27.23;;;12.90;;
37937;SDS011;23763;48.130;11.602;2023-02-13T01:06:09;27.17;;;13.53;;
37937;SDS011;23763;48.130;11.602;2023-02-13T01:08:37;25.70;;;13.20;;
37937;SDS011;23763;48.130;11.602;2023-02-13T01:11:04;30.23;;;12.67;;
37937;SDS011;23763;48.130;11.602;2023-02-13T01:13:30;30.03;;;12.63;;
37937;SDS011;23763;48.130;11.602;2023-02-13T01:15:55;28.63;;;12.67;;
37937;SDS011;23763;48.130;11.602;2023-02-13T01:18:21;25.17;;;12.57;;
37937;SDS011;23763;48.130;11.602;2023-02-13T01:21:07;31.10;;;13.37;;
37937;SDS011;23763;48.130;11.602;2023-02-13T01:23:38;27.93;;;12.70;;
37937;SDS011;23763;48.130;11.602;2023-02-13T01:26:05;23.07;;;13.17;;
37937;SDS011;23763;48.130;11.602;2023-02-13T01:28:32;21.37;;;13.60;;
37937;SDS011;23763;48.130;11.602;2023-02-13T01:30:58;21.13;;;12.20;;
37937;SDS011;23763;48.130;11.602;2023-02-13T01:33:25;25.43;;;11.73;;
37937;SDS011;23763;48.130;11.602;2023-02-13T01:35:52;33.73;;;12.87;;
37937;SDS011;23763;48.130;11.602;2023-02-13T01:38:18;29.30;;;12.60;;
37937;SDS011;23763;48.130;11.602;2023-02-13T01:40:45;25.47;;;13.30;;
37937;SDS011;23763;48.130;11.602;2023-02-13T01:43:11;25.23;;;12.80;;
37937;SDS011;23763;48.130;11.602;2023-02-13T01:45:37;21.20;;;12.63;;
37937;SDS011;23763;48.130;11.602;2023-02-13T01:48:15;26.03;;;12.17;;
37937;SDS011;23763;48.130;11.602;2023-02-13T01:50:45;25.93;;;13.23;;
37937;SDS011;23763;48.130;11.602;2023-02-13T01:55:56;19.27;;;11.83;;
37937;SDS011;23763;48.130;11.602;2023-02-13T01:58:30;27.23;;;11.90;;
37937;SDS011;23763;48.130;11.602;2023-02-13T02:00:58;19.53;;;12.57;;
37937;SDS011;23763;48.130;11.602;2023-02-13T02:03:45;21.90;;;11.47;;
37937;SDS011;23763;48.130;11.602;2023-02-13T02:06:25;21.50;;;11.80;;
37937;SDS011;23763;48.130;11.602;2023-02-13T02:08:54;22.80;;;10.97;;
37937;SDS011;23763;48.130;11.602;2023-02-13T02:11:33;24.83;;;12.07;;
37937;SDS011;23763;48.130;11.602;2023-02-13T02:14:18;29.50;;;13.60;;
37937;SDS011;23763;48.130;11.602;2023-02-13T02:16:44;26.00;;;12.60;;
37937;SDS011;23763;48.130;11.602;2023-02-13T02:19:15;24.27;;;13.43;;
37937;SDS011;23763;48.130;11.602;2023-02-13T02:24:46;18.93;;;11.13;;
37937;SDS011;23763;48.130;11.602;2023-02-13T02:36:01;19.43;;;12.03;;
37937;SDS011;23763;48.130;11.602;2023-02-13T03:01:20;13.67;;;8.33;;
37937;SDS011;23763;48.130;11.602;2023-02-13T03:04:15;14.97;;;9.83;;
37937;SDS011;23763;48.130;11.602;2023-02-13T03:07:06;13.70;;;9.00;;
37937;SDS011;23763;48.130;11.602;2023-02-13T03:09:37;14.60;;;9.37;;
37937;SDS011;23763;48.130;11.602;2023-02-13T03:12:29;14.50;;;9.40;;
37937;SDS011;23763;48.130;11.602;2023-02-13T03:15:41;13.07;;;9.13;;
37937;SDS011;23763;48.130;11.602;2023-02-13T03:18:28;13.40;;;8.93;;
37937;SDS011;23763;48.130;11.602;2023-02-13T03:21:25;11.50;;;8.50;;
37937;SDS011;23763;48.130;11.602;2023-02-13T03:27:27;16.20;;;9.00;;
37937;SDS011;23763;48.130;11.602;2023-02-13T03:33:57;13.17;;;8.47;;
37937;SDS011;23763;48.130;11.602;2023-02-13T03:39:51;15.80;;;9.30;;
37937;SDS011;23763;48.130;11.602;2023-02-13T03:45:10;15.50;;;9.30;;
37937;SDS011;23763;48.130;11.602;2023-02-13T03:48:00;16.90;;;9.77;;
37937;SDS011;23763;48.130;11.602;2023-02-13T03:50:33;19.37;;;9.60;;
37937;SDS011;23763;48.130;11.602;2023-02-13T03:53:05;15.40;;;10.13;;
37937;SDS011;23763;48.130;11.602;2023-02-13T03:55:39;12.90;;;9.00;;
37937;SDS011;23763;48.130;11.602;2023-02-13T03:58:29;13.90;;;9.63;;
37937;SDS011;23763;48.130;11.602;2023-02-13T04:01:18;17.37;;;10.60;;
37937;SDS011;23763;48.130;11.602;2023-02-13T04:03:50;16.10;;;10.20;;
37937;SDS011;23763;48.130;11.602;2023-02-13T04:06:26;14.67;;;9.60;;
37937;SDS011;23763;48.130;11.602;2023-02-13T04:08:56;14.47;;;8.77;;
37937;SDS011;23763;48.130;11.602;2023-02-13T04:14:06;15.47;;;9.17;;
37937;SDS011;23763;48.130;11.602;2023-02-13T04:16:46;13.43;;;8.40;;
37937;SDS011;23763;48.130;11.602;2023-02-13T04:19:26;10.63;;;8.10;;
37937;SDS011;23763;48.130;11.602;2023-02-13T04:21:56;14.17;;;8.17;;
37937;SDS011;23763;48.130;11.602;2023-02-13T04:24:23;11.47;;;7.33;;
37937;SDS011;23763;48.130;11.602;2023-02-13T04:26:50;12.60;;;8.13;;
37937;SDS011;23763;48.130;11.602;2023-02-13T04:29:16;15.63;;;8.13;;
37937;SDS011;23763;48.130;11.602;2023-02-13T04:31:42;13.30;;;8.67;;
37937;SDS011;23763;48.130;11.602;2023-02-13T04:34:07;9.70;;;7.30;;
37937;SDS011;23763;48.130;11.602;2023-02-13T04:36:33;11.57;;;7.70;;
37937;SDS011;23763;48.130;11.602;2023-02-13T04:38:58;15.10;;;7.40;;
37937;SDS011;23763;48.130;11.602;2023-02-13T04:41:24;12.67;;;8.07;;
37937;SDS011;23763;48.130;11.602;2023-02-13T04:43:50;12.30;;;7.93;;
37937;SDS011;23763;48.130;11.602;2023-02-13T04:46:16;11.80;;;7.87;;
37937;SDS011;23763;48.130;11.602;2023-02-13T04:48:42;11.40;;;8.67;;
37937;SDS011;23763;48.130;11.602;2023-02-13T04:51:08;12.90;;;8.50;;
37937;SDS011;23763;48.130;11.602;2023-02-13T04:53:34;11.87;;;8.33;;
37937;SDS011;23763;48.130;11.602;2023-02-13T04:55:59;13.97;;;8.73;;
37937;SDS011;23763;48.130;11.602;2023-02-13T04:58:25;12.90;;;8.87;;
37937;SDS011;23763;48.130;11.602;2023-02-13T05:00:51;13.33;;;9.13;;
37937;SDS011;23763;48.130;11.602;2023-02-13T05:03:16;13.67;;;9.40;;
37937;SDS011;23763;48.130;11.602;2023-02-13T05:05:42;15.77;;;9.93;;
37937;SDS011;23763;48.130;11.602;2023-02-13T05:08:08;15.17;;;9.40;;
37937;SDS011;23763;48.130;11.602;2023-02-13T05:10:34;15.00;;;10.37;;
37937;SDS011;23763;48.130;11.602;2023-02-13T05:13:00;15.63;;;9.93;;
37937;SDS011;23763;48.130;11.602;2023-02-13T05:15:26;15.03;;;9.27;;
37937;SDS011;23763;48.130;11.602;2023-02-13T05:17:51;11.83;;;8.70;;
37937;SDS011;23763;48.130;11.602;2023-02-13T05:20:17;13.50;;;9.23;;
37937;SDS011;23763;48.130;11.602;2023-02-13T05:22:47;15.50;;;9.73;;
37937;SDS011;23763;48.130;11.602;2023-02-13T05:25:36;19.43;;;10.17;;
37937;SDS011;23763;48.130;11.602;2023-02-13T05:28:03;17.57;;;10.07;;
37937;SDS011;23763;48.130;11.602;2023-02-13T05:30:29;15.50;;;10.47;;
37937;SDS011;23763;48.130;11.602;2023-02-13T05:32:55;18.63;;;10.50;;
37937;SDS011;23763;48.130;11.602;2023-02-13T05:35:21;15.33;;;9.83;;
37937;SDS011;23763;48.130;11.602;2023-02-13T05:37:47;17.13;;;10.40;;
37937;SDS011;23763;48.130;11.602;2023-02-13T05:40:13;14.93;;;10.10;;
37937;SDS011;23763;48.130;11.602;2023-02-13T05:42:39;13.93;;;9.93;;
37937;SDS011;23763;48.130;11.602;2023-02-13T05:45:06;18.17;;;10.23;;
37937;SDS011;23763;48.130;11.602;2023-02-13T05:47:32;15.10;;;9.57;;
37937;SDS011;23763;48.130;11.602;2023-02-13T05:49:58;14.10;;;9.53;;
37937;SDS011;23763;48.130;11.602;2023-02-13T05:52:24;16.37;;;10.47;;
37937;SDS011;23763;48.130;11.602;2023-02-13T05:54:49;16.47;;;9.80;;
37937;SDS011;23763;48.130;11.602;2023-02-13T05:57:15;15.17;;;11.00;;
37937;SDS011;23763;48.130;11.602;2023-02-13T05:59:41;17.27;;;10.77;;
37937;SDS011;23763;48.130;11.602;2023-02-13T06:02:06;16.40;;;11.10;;
37937;SDS011;23763;48.130;11.602;2023-02-13T06:04:32;14.13;;;10.53;;
37937;SDS011;23763;48.130;11.602;2023-02-13T06:06:58;12.93;;;9.90;;
37937;SDS011;23763;48.130;11.602;2023-02-13T06:09:23;15.83;;;11.13;;
37937;SDS011;23763;48.130;11.602;2023-02-13T06:11:49;19.30;;;11.73;;
37937;SDS011;23763;48.130;11.602;2023-02-13T06:14:15;18.93;;;11.03;;
37937;SDS011;23763;48.130;11.602;2023-02-13T06:16:40;22.23;;;11.80;;
37937;SDS011;23763;48.130;11.602;2023-02-13T06:19:06;19.53;;;11.80;;
37937;SDS011;23763;48.130;11.602;2023-02-13T06:21:37;15.50;;;11.13;;
37937;SDS011;23763;48.130;11.602;2023-02-13T06:24:10;19.47;;;11.50;;
37937;SDS011;23763;48.130;11.602;2023-02-13T06:26:36;17.30;;;11.00;;
37937;SDS011;23763;48.130;11.602;2023-02-13T06:29:01;16.27;;;11.60;;
37937;SDS011;23763;48.130;11.602;2023-02-13T06:31:27;17.03;;;11.10;;
37937;SDS011;23763;48.130;11.602;2023-02-13T06:33:52;19.93;;;11.93;;
37937;SDS011;23763;48.130;11.602;2023-02-13T06:36:18;17.60;;;10.87;;
37937;SDS011;23763;48.130;11.602;2023-02-13T06:38:44;18.37;;;11.90;;
37937;SDS011;23763;48.130;11.602;2023-02-13T06:41:09;12.87;;;10.73;;
37937;SDS011;23763;48.130;11.602;2023-02-13T06:43:35;15.30;;;10.73;;
37937;SDS011;23763;48.130;11.602;2023-02-13T06:46:04;20.23;;;11.97;;
37937;SDS011;23763;48.130;11.602;2023-02-13T06:48:31;19.93;;;12.33;;
37937;SDS011;23763;48.130;11.602;2023-02-13T06:50:57;20.00;;;12.17;;
37937;SDS011;23763;48.130;11.602;2023-02-13T06:53:22;16.30;;;11.50;;
37937;SDS011;23763;48.130;11.602;2023-02-13T06:55:52;27.27;;;18.00;;
37937;SDS011;23763;48.130;11.602;2023-02-13T06:58:20;21.53;;;14.47;;
37937;SDS011;23763;48.130;11.602;2023-02-13T07:00:46;19.30;;;13.87;;
37937;SDS011;23763;48.130;11.602;2023-02-13T07:03:12;21.17;;;13.47;;
37937;SDS011;23763;48.130;11.602;2023-02-13T07:05:41;23.30;;;13.07;;
37937;SDS011;23763;48.130;11.602;2023-02-13T07:08:09;20.60;;;13.83;;
37937;SDS011;23763;48.130;11.602;2023-02-13T07:10:39;22.67;;;14.10;;
37937;SDS011;23763;48.130;11.602;2023-02-13T07:13:06;22.57;;;14.27;;
37937;SDS011;23763;48.130;11.602;2023-02-13T07:15:32;22.80;;;14.73;;
37937;SDS011;23763;48.130;11.602;2023-02-13T07:17:58;23.93;;;14.00;;
37937;SDS011;23763;48.130;11.602;2023-02-13T07:20:25;19.17;;;14.20;;
37937;SDS011;23763;48.130;11.602;2023-02-13T07:22:51;22.60;;;13.23;;
37937;SDS011;23763;48.130;11.602;2023-02-13T07:25:18;22.47;;;14.13;;
37937;SDS011;23763;48.130;11.602;2023-02-13T07:27:44;24.07;;;13.53;;
37937;SDS011;23763;48.130;11.602;2023-02-13T07:30:09;21.60;;;13.93;;
37937;SDS011;23763;48.130;11.602;2023-02-13T07:32:35;22.70;;;14.20;;
37937;SDS011;23763;48.130;11.602;2023-02-13T07:35:01;21.70;;;13.53;;
37937;SDS011;23763;48.130;11.602;2023-02-13T07:37:27;19.97;;;12.57;;
37937;SDS011;23763;48.130;11.602;2023-02-13T07:39:54;22.67;;;13.67;;
37937;SDS011;23763;48.130;11.602;2023-02-13T07:42:19;24.73;;;14.30;;
37937;SDS011;23763;48.130;11.602;2023-02-13T07:44:45;25.70;;;14.27;;
37937;SDS011;23763;48.130;11.602;2023-02-13T07:47:10;22.30;;;14.37;;
37937;SDS011;23763;48.130;11.602;2023-02-13T07:49:36;22.33;;;15.53;;
37937;SDS011;23763;48.130;11.602;2023-02-13T07:52:02;21.97;;;14.13;;
37937;SDS011;23763;48.130;11.602;2023-02-13T07:54:28;21.57;;;15.90;;
37937;SDS011;23763;48.130;11.602;2023-02-13T07:56:54;23.57;;;13.90;;
37937;SDS011;23763;48.130;11.602;2023-02-13T07:59:20;30.90;;;18.77;;
37937;SDS011;23763;48.130;11.602;2023-02-13T08:01:46;23.47;;;15.60;;
37937;SDS011;23763;48.130;11.602;2023-02-13T08:04:11;42.07;;;22.77;;
37937;SDS011;23763;48.130;11.602;2023-02-13T08:06:40;31.77;;;19.17;;
37937;SDS011;23763;48.130;11.602;2023-02-13T08:09:06;24.40;;;14.87;;
37937;SDS011;23763;48.130;11.602;2023-02-13T08:11:56;21.77;;;14.07;;
37937;SDS011;23763;48.130;11.602;2023-02-13T08:14:23;31.97;;;20.03;;
37937;SDS011;23763;48.130;11.602;2023-02-13T08:16:50;26.97;;;16.50;;
37937;SDS011;23763;48.130;11.602;2023-02-13T08:19:16;22.63;;;13.93;;
37937;SDS011;23763;48.130;11.602;2023-02-13T08:21:41;21.97;;;15.07;;
37937;SDS011;23763;48.130;11.602;2023-02-13T08:24:07;23.83;;;15.60;;
37937;SDS011;23763;48.130;11.602;2023-02-13T08:26:33;23.57;;;15.50;;
37937;SDS011;23763;48.130;11.602;2023-02-13T08:28:59;23.33;;;15.90;;
37937;SDS011;23763;48.130;11.602;2023-02-13T08:31:25;23.47;;;15.73;;
37937;SDS011;23763;48.130;11.602;2023-02-13T08:33:51;29.23;;;18.37;;
37937;SDS011;23763;48.130;11.602;2023-02-13T08:36:16;23.83;;;15.00;;
37937;SDS011;23763;48.130;11.602;2023-02-13T08:38:45;24.20;;;14.93;;
37937;SDS011;23763;48.130;11.602;2023-02-13T08:41:11;23.33;;;14.73;;
37937;SDS011;23763;48.130;11.602;2023-02-13T08:43:37;24.10;;;13.43;;
37937;SDS011;23763;48.130;11.602;2023-02-13T08:46:02;23.97;;;14.10;;
37937;SDS011;23763;48.130;11.602;2023-02-13T08:48:28;20.83;;;13.13;;
37937;SDS011;23763;48.130;11.602;2023-02-13T08:50:54;21.93;;;14.57;;
37937;SDS011;23763;48.130;11.602;2023-02-13T08:53:20;39.23;;;22.93;;
37937;SDS011;23763;48.130;11.602;2023-02-13T08:55:55;27.67;;;16.90;;
37937;SDS011;23763;48.130;11.602;2023-02-13T08:58:21;24.43;;;14.57;;
37937;SDS011;23763;48.130;11.602;2023-02-13T09:00:48;25.03;;;15.40;;
37937;SDS011;23763;48.130;11.602;2023-02-13T09:03:13;32.80;;;20.43;;
37937;SDS011;23763;48.130;11.602;2023-02-13T09:05:39;27.63;;;17.37;;
37937;SDS011;23763;48.130;11.602;2023-02-13T09:08:05;32.50;;;19.70;;
37937;SDS011;23763;48.130;11.602;2023-02-13T09:10:32;24.27;;;17.40;;
37937;SDS011;23763;48.130;11.602;2023-02-13T09:12:58;34.23;;;22.63;;
37937;SDS011;23763;48.130;11.602;2023-02-13T09:15:25;23.53;;;14.67;;
37937;SDS011;23763;48.130;11.602;2023-02-13T09:17:51;30.73;;;17.60;;
37937;SDS011;23763;48.130;11.602;2023-02-13T09:20:16;36.77;;;23.57;;
37937;SDS011;23763;48.130;11.602;2023-02-13T09:22:42;28.63;;;19.23;;
37937;SDS011;23763;48.130;11.602;2023-02-13T09:25:08;23.40;;;15.50;;
37937;SDS011;23763;48.130;11.602;2023-02-13T09:27:37;22.80;;;14.90;;
37937;SDS011;23763;48.130;11.602;2023-02-13T09:30:04;29.27;;;18.03;;
37937;SDS011;23763;48.130;11.602;2023-02-13T09:32:30;25.63;;;17.00;;
37937;SDS011;23763;48.130;11.602;2023-02-13T09:35:10;21.97;;;14.67;;
37937;SDS011;23763;48.130;11.602;2023-02-13T09:37:38;25.67;;;15.97;;
37937;SDS011;23763;48.130;11.602;2023-02-13T09:40:05;25.40;;;14.83;;
37937;SDS011;23763;48.130;11.602;2023-02-13T09:42:40;23.33;;;14.87;;
37937;SDS011;23763;48.130;11.602;2023-02-13T09:45:07;21.07;;;14.83;;
37937;SDS011;23763;48.130;11.602;2023-02-13T09:47:41;22.90;;;15.37;;
37937;SDS011;23763;48.130;11.602;2023-02-13T09:50:18;24.03;;;15.10;;
37937;SDS011;23763;48.130;11.602;2023-02-13T09:52:46;26.13;;;15.40;;
37937;SDS011;23763;48.130;11.602;2023-02-13T09:55:32;25.90;;;15.57;;
37937;SDS011;23763;48.130;11.602;2023-02-13T09:58:18;22.53;;;15.20;;
37937;SDS011;23763;48.130;11.602;2023-02-13T10:00:52;39.33;;;22.27;;
37937;SDS011;23763;48.130;11.602;2023-02-13T10:06:05;27.37;;;16.37;;
37937;SDS011;23763;48.130;11.602;2023-02-13T10:08:48;46.20;;;24.00;;
37937;SDS011;23763;48.130;11.602;2023-02-13T10:14:36;26.77;;;16.83;;
37937;SDS011;23763;48.130;11.602;2023-02-13T10:20:26;28.17;;;17.97;;
37937;SDS011;23763;48.130;11.602;2023-02-13T10:28:26;28.90;;;17.80;;
37937;SDS011;23763;48.130;11.602;2023-02-13T10:30:57;32.47;;;18.83;;
37937;SDS011;23763;48.130;11.602;2023-02-13T10:33:33;32.17;;;19.83;;
37937;SDS011;23763;48.130;11.602;2023-02-13T10:36:02;26.90;;;16.57;;
37937;SDS011;23763;48.130;11.602;2023-02-13T10:38:57;27.00;;;16.03;;
37937;SDS011;23763;48.130;11.602;2023-02-13T10:41:48;23.37;;;15.00;;
37937;SDS011;23763;48.130;11.602;2023-02-13T10:44:33;31.57;;;17.20;;
37937;SDS011;23763;48.130;11.602;2023-02-13T10:58:02;25.77;;;16.47;;
37937;SDS011;23763;48.130;11.602;2023-02-13T11:00:55;24.23;;;16.07;;
37937;SDS011;23763;48.130;11.602;2023-02-13T11:03:27;24.57;;;14.60;;
37937;SDS011;23763;48.130;11.602;2023-02-13T11:05:54;30.33;;;18.20;;
37937;SDS011;23763;48.130;11.602;2023-02-13T11:08:22;30.23;;;16.93;;
37937;SDS011;23763;48.130;11.602;2023-02-13T11:10:56;28.70;;;16.33;;
37937;SDS011;23763;48.130;11.602;2023-02-13T11:13:23;25.43;;;15.10;;
37937;SDS011;23763;48.130;11.602;2023-02-13T11:18:27;29.93;;;17.97;;
37937;SDS011;23763;48.130;11.602;2023-02-13T11:20:58;30.50;;;18.37;;
37937;SDS011;23763;48.130;11.602;2023-02-13T11:23:33;34.23;;;19.10;;
37937;SDS011;23763;48.130;11.602;2023-02-13T11:28:33;27.63;;;17.50;;
37937;SDS011;23763;48.130;11.602;2023-02-13T11:31:10;24.97;;;15.60;;
37937;SDS011;23763;48.130;11.602;2023-02-13T11:33:45;23.67;;;14.83;;
37937;SDS011;23763;48.130;11.602;2023-02-13T11:36:15;35.57;;;19.40;;
37937;SDS011;23763;48.130;11.602;2023-02-13T11:38:56;25.67;;;15.43;;
37937;SDS011;23763;48.130;11.602;2023-02-13T11:41:23;28.13;;;16.73;;
37937;SDS011;23763;48.130;11.602;2023-02-13T11:43:53;29.50;;;17.40;;
37937;SDS011;23763;48.130;11.602;2023-02-13T11:46:25;28.03;;;17.67;;
37937;SDS011;23763;48.130;11.602;2023-02-13T11:49:00;27.37;;;17.60;;
37937;SDS011;23763;48.130;11.602;2023-02-13T11:51:37;31.20;;;17.93;;
37937;SDS011;23763;48.130;11.602;2023-02-13T11:56:56;25.07;;;16.40;;
37937;SDS011;23763;48.130;11.602;2023-02-13T11:59:24;27.10;;;15.90;;
37937;SDS011;23763;48.130;11.602;2023-02-13T12:02:02;25.20;;;16.03;;
37937;SDS011;23763;48.130;11.602;2023-02-13T12:04:37;35.47;;;20.07;;
37937;SDS011;23763;48.130;11.602;2023-02-13T12:07:04;28.17;;;17.70;;
37937;SDS011;23763;48.130;11.602;2023-02-13T12:09:58;39.27;;;20.43;;
37937;SDS011;23763;48.130;11.602;2023-02-13T12:12:29;26.47;;;16.87;;
37937;SDS011;23763;48.130;11.602;2023-02-13T12:15:06;28.23;;;15.53;;
37937;SDS011;23763;48.130;11.602;2023-02-13T12:17:41;27.50;;;15.50;;
37937;SDS011;23763;48.130;11.602;2023-02-13T12:20:16;25.13;;;15.10;;
37937;SDS011;23763;48.130;11.602;2023-02-13T12:25:24;27.90;;;16.63;;
37937;SDS011;23763;48.130;11.602;2023-02-13T12:28:06;26.80;;;15.37;;
37937;SDS011;23763;48.130;11.602;2023-02-13T12:30:51;34.53;;;18.30;;
37937;SDS011;23763;48.130;11.602;2023-02-13T12:39:17;25.13;;;14.77;;
37937;SDS011;23763;48.130;11.602;2023-02-13T12:41:56;25.83;;;15.43;;
37937;SDS011;23763;48.130;11.602;2023-02-13T12:47:30;25.30;;;14.27;;
37937;SDS011;23763;48.130;11.602;2023-02-13T12:58:42;22.20;;;14.47;;
37937;SDS011;23763;48.130;11.602;2023-02-13T13:04:11;24.10;;;14.67;;
37937;SDS011;23763;48.130;11.602;2023-02-13T13:06:49;25.87;;;14.10;;
37937;SDS011;23763;48.130;11.602;2023-02-13T13:12:16;22.92;;;14.63;;
37937;SDS011;23763;48.130;11.602;2023-02-13T13:25:32;21.97;;;13.60;;
37937;SDS011;23763;48.130;11.602;2023-02-13T13:28:13;24.57;;;14.00;;
37937;SDS011;23763;48.130;11.602;2023-02-13T13:30:40;23.20;;;13.23;;
37937;SDS011;23763;48.130;11.602;2023-02-13T13:33:13;20.60;;;13.10;;
37937;SDS011;23763;48.130;11.602;2023-02-13T13:35:42;21.00;;;13.70;;
37937;SDS011;23763;48.130;11.602;2023-02-13T13:38:24;18.97;;;12.23;;
37937;SDS011;23763;48.130;11.602;2023-02-13T13:41:11;17.40;;;12.33;;
37937;SDS011;23763;48.130;11.602;2023-02-13T13:51:41;24.13;;;13.73;;
37937;SDS011;23763;48.130;11.602;2023-02-13T13:59:17;19.70;;;12.07;;
37937;SDS011;23763;48.130;11.602;2023-02-13T14:05:01;18.17;;;12.67;;
37937;SDS011;23763;48.130;11.602;2023-02-13T14:07:50;20.80;;;11.97;;
37937;SDS011;23763;48.130;11.602;2023-02-13T14:18:20;18.90;;;11.83;;
37937;SDS011;23763;48.130;11.602;2023-02-13T14:23:22;17.93;;;12.50;;
37937;SDS011;23763;48.130;11.602;2023-02-13T14:31:30;18.90;;;11.90;;
37937;SDS011;23763;48.130;11.602;2023-02-13T14:34:04;17.40;;;11.53;;
37937;SDS011;23763;48.130;11.602;2023-02-13T14:37:13;18.60;;;12.00;;
37937;SDS011;23763;48.130;11.602;2023-02-13T14:40:09;24.17;;;12.90;;
37937;SDS011;23763;48.130;11.602;2023-02-13T14:42:50;19.60;;;11.03;;
37937;SDS011;23763;48.130;11.602;2023-02-13T14:45:23;29.10;;;17.77;;
37937;SDS011;23763;48.130;11.602;2023-02-13T14:47:56;22.70;;;14.53;;
37937;SDS011;23763;48.130;11.602;2023-02-13T14:53:26;18.30;;;11.63;;
37937;SDS011;23763;48.130;11.602;2023-02-13T14:56:00;15.77;;;11.37;;
37937;SDS011;23763;48.130;11.602;2023-02-13T14:58:32;17.73;;;10.93;;
37937;SDS011;23763;48.130;11.602;2023-02-13T15:01:05;15.87;;;11.90;;
37937;SDS011;23763;48.130;11.602;2023-02-13T15:03:45;26.47;;;17.37;;
37937;SDS011;23763;48.130;11.602;2023-02-13T15:06:24;23.47;;;14.50;;
37937;SDS011;23763;48.130;11.602;2023-02-13T15:08:52;24.50;;;15.83;;
37937;SDS011;23763;48.130;11.602;2023-02-13T15:11:36;32.63;;;18.87;;
37937;SDS011;23763;48.130;11.602;2023-02-13T15:16:56;20.70;;;12.67;;
37937;SDS011;23763;48.130;11.602;2023-02-13T15:19:25;16.63;;;12.33;;
37937;SDS011;23763;48.130;11.602;2023-02-13T15:21:53;22.43;;;13.07;;
37937;SDS011;23763;48.130;11.602;2023-02-13T15:24:22;22.53;;;14.13;;
37937;SDS011;23763;48.130;11.602;2023-02-13T15:26:50;21.83;;;14.73;;
37937;SDS011;23763;48.130;11.602;2023-02-13T15:29:51;19.37;;;12.90;;
37937;SDS011;23763;48.130;11.602;2023-02-13T15:32:28;19.17;;;12.83;;
37937;SDS011;23763;48.130;11.602;2023-02-13T15:34:59;21.90;;;12.90;;
37937;SDS011;23763;48.130;11.602;2023-02-13T15:37:28;19.87;;;13.20;;
37937;SDS011;23763;48.130;11.602;2023-02-13T15:39:55;19.37;;;13.37;;
37937;SDS011;23763;48.130;11.602;2023-02-13T15:42:37;36.87;;;20.80;;
37937;SDS011;23763;48.130;11.602;2023-02-13T15:45:03;23.33;;;15.87;;
37937;SDS011;23763;48.130;11.602;2023-02-13T15:47:30;26.47;;;16.07;;
37937;SDS011;23763;48.130;11.602;2023-02-13T15:49:57;24.87;;;16.67;;
37937;SDS011;23763;48.130;11.602;2023-02-13T15:52:33;23.23;;;15.40;;
37937;SDS011;23763;48.130;11.602;2023-02-13T15:55:02;21.77;;;13.10;;
37937;SDS011;23763;48.130;11.602;2023-02-13T15:57:28;19.33;;;12.13;;
37937;SDS011;23763;48.130;11.602;2023-02-13T15:59:54;26.47;;;15.77;;
37937;SDS011;23763;48.130;11.602;2023-02-13T16:02:22;19.53;;;13.37;;
37937;SDS011;23763;48.130;11.602;2023-02-13T16:04:53;22.87;;;13.77;;
37937;SDS011;23763;48.130;11.602;2023-02-13T16:07:20;23.10;;;13.93;;
37937;SDS011;23763;48.130;11.602;2023-02-13T16:09:46;21.03;;;13.23;;
37937;SDS011;23763;48.130;11.602;2023-02-13T16:14:46;20.77;;;12.97;;
37937;SDS011;23763;48.130;11.602;2023-02-13T16:17:38;22.50;;;13.10;;
37937;SDS011;23763;48.130;11.602;2023-02-13T16:25:23;19.80;;;13.20;;
37937;SDS011;23763;48.130;11.602;2023-02-13T16:27:57;22.10;;;13.17;;
37937;SDS011;23763;48.130;11.602;2023-02-13T16:35:48;20.87;;;13.83;;
37937;SDS011;23763;48.130;11.602;2023-02-13T16:40:53;21.33;;;14.27;;
37937;SDS011;23763;48.130;11.602;2023-02-13T16:51:43;20.63;;;14.43;;
37937;SDS011;23763;48.130;11.602;2023-02-13T16:54:15;20.87;;;13.23;;
37937;SDS011;23763;48.130;11.602;2023-02-13T17:02:02;23.97;;;14.70;;
37937;SDS011;23763;48.130;11.602;2023-02-13T17:04:34;46.13;;;25.83;;
37937;SDS011;23763;48.130;11.602;2023-02-13T17:07:03;27.97;;;17.43;;
37937;SDS011;23763;48.130;11.602;2023-02-13T17:09:39;25.33;;;16.03;;
37937;SDS011;23763;48.130;11.602;2023-02-13T17:12:10;25.30;;;15.60;;
37937;SDS011;23763;48.130;11.602;2023-02-13T17:14:38;34.57;;;19.97;;
37937;SDS011;23763;48.130;11.602;2023-02-13T17:17:08;28.60;;;18.30;;
37937;SDS011;23763;48.130;11.602;2023-02-13T17:19:35;25.17;;;16.93;;
37937;SDS011;23763;48.130;11.602;2023-02-13T17:22:01;26.83;;;16.10;;
37937;SDS011;23763;48.130;11.602;2023-02-13T17:24:27;54.80;;;31.07;;
37937;SDS011;23763;48.130;11.602;2023-02-13T17:26:53;26.70;;;19.07;;
37937;SDS011;23763;48.130;11.602;2023-02-13T17:29:19;26.27;;;16.90;;
37937;SDS011;23763;48.130;11.602;2023-02-13T17:31:44;23.93;;;15.97;;
37937;SDS011;23763;48.130;11.602;2023-02-13T17:34:10;35.20;;;20.90;;
37937;SDS011;23763;48.130;11.602;2023-02-13T17:36:36;46.23;;;26.37;;
37937;SDS011;23763;48.130;11.602;2023-02-13T17:39:02;28.33;;;19.13;;
37937;SDS011;23763;48.130;11.602;2023-02-13T17:41:27;28.33;;;18.17;;